CIX weather

Capitan FAP Jose A Quinones Gonzales International Airport
Chiclayo, Lambayeque Region, PerĂº

Public forecast

Using degrees Celsius for public forecast. Weather courtesy of forecast.io.

Current aviation weather report (METAR) for Capitan FAP Jose A Quinones Gonzales International Airport

Report is more than 2 hours old.

Retrieved 2020/05/27 19:00 UTC (4 hours ago):

SPHI 271900Z 21012KT CAVOK 25/18 Q1011 RMK BIRD HAZARD RWY 19/01 PP000

Aviation forecast (TAF) for Capitan FAP Jose A Quinones Gonzales International Airport

Forecast is more than 6 hours old.

Retrieved 2020/05/27 12:55 UTC (11 hours ago):

TAF SPHI 271330Z 2712/2812 19008KT CAVOK TX25/2719Z TN17/2810Z FM271930 18016KT CAVOK FM280000 15007KT CAVOK